sensor_id;sensor_type;location;lat;lon;timestamp;temperature;humidity
12043;DHT22;6082;49.306;12.862;2022-11-10T00:00:04;9.90;99.90
12043;DHT22;6082;49.306;12.862;2022-11-10T00:02:31;10.00;99.90
12043;DHT22;6082;49.306;12.862;2022-11-10T00:04:56;9.90;99.90
12043;DHT22;6082;49.306;12.862;2022-11-10T00:07:26;10.00;99.90
12043;DHT22;6082;49.306;12.862;2022-11-10T00:09:52;10.00;99.90
12043;DHT22;6082;49.306;12.862;2022-11-10T00:12:19;10.00;99.90
12043;DHT22;6082;49.306;12.862;2022-11-10T00:14:45;10.00;99.90
12043;DHT22;6082;49.306;12.862;2022-11-10T00:17:29;10.00;99.90
12043;DHT22;6082;49.306;12.862;2022-11-10T00:19:55;10.00;99.90
12043;DHT22;6082;49.306;12.862;2022-11-10T00:22:21;9.90;99.90
12043;DHT22;6082;49.306;12.862;2022-11-10T00:24:46;10.00;99.90
12043;DHT22;6082;49.306;12.862;2022-11-10T00:27:12;10.00;99.90
12043;DHT22;6082;49.306;12.862;2022-11-10T00:29:40;10.00;99.90
12043;DHT22;6082;49.306;12.862;2022-11-10T00:32:06;10.00;99.90
12043;DHT22;6082;49.306;12.862;2022-11-10T00:34:32;10.00;99.90
12043;DHT22;6082;49.306;12.862;2022-11-10T00:36:57;10.00;99.90
12043;DHT22;6082;49.306;12.862;2022-11-10T00:39:23;10.00;99.90
12043;DHT22;6082;49.306;12.862;2022-11-10T00:41:49;10.00;99.90
12043;DHT22;6082;49.306;12.862;2022-11-10T00:44:14;10.00;99.90
12043;DHT22;6082;49.306;12.862;2022-11-10T00:46:40;10.00;99.90
12043;DHT22;6082;49.306;12.862;2022-11-10T00:49:06;10.00;99.90
12043;DHT22;6082;49.306;12.862;2022-11-10T00:51:31;10.00;99.90
12043;DHT22;6082;49.306;12.862;2022-11-10T00:53:57;10.00;99.90
12043;DHT22;6082;49.306;12.862;2022-11-10T00:56:37;10.00;99.90
12043;DHT22;6082;49.306;12.862;2022-11-10T00:59:03;10.00;99.90
12043;DHT22;6082;49.306;12.862;2022-11-10T01:01:28;10.00;99.90
12043;DHT22;6082;49.306;12.862;2022-11-10T01:03:54;10.00;99.90
12043;DHT22;6082;49.306;12.862;2022-11-10T01:06:20;10.00;99.90
12043;DHT22;6082;49.306;12.862;2022-11-10T01:08:46;10.00;99.90
12043;DHT22;6082;49.306;12.862;2022-11-10T01:11:15;10.00;99.90
12043;DHT22;6082;49.306;12.862;2022-11-10T01:13:41;10.00;99.90
12043;DHT22;6082;49.306;12.862;2022-11-10T01:16:11;10.00;99.90
12043;DHT22;6082;49.306;12.862;2022-11-10T01:18:37;10.00;99.90
12043;DHT22;6082;49.306;12.862;2022-11-10T01:21:03;10.00;99.90
12043;DHT22;6082;49.306;12.862;2022-11-10T01:23:30;10.00;99.90
12043;DHT22;6082;49.306;12.862;2022-11-10T01:26:00;10.00;99.90
12043;DHT22;6082;49.306;12.862;2022-11-10T01:28:26;10.00;99.90
12043;DHT22;6082;49.306;12.862;2022-11-10T01:31:04;10.00;99.90
12043;DHT22;6082;49.306;12.862;2022-11-10T01:33:30;10.00;99.90
12043;DHT22;6082;49.306;12.862;2022-11-10T01:35:56;10.00;99.90
12043;DHT22;6082;49.306;12.862;2022-11-10T01:38:25;10.00;99.90
12043;DHT22;6082;49.306;12.862;2022-11-10T01:40:51;10.10;99.90
12043;DHT22;6082;49.306;12.862;2022-11-10T01:43:16;10.00;99.90
12043;DHT22;6082;49.306;12.862;2022-11-10T01:45:49;10.00;99.90
12043;DHT22;6082;49.306;12.862;2022-11-10T01:48:27;10.10;99.90
12043;DHT22;6082;49.306;12.862;2022-11-10T01:50:55;10.10;99.90
12043;DHT22;6082;49.306;12.862;2022-11-10T01:53:24;10.10;99.90
12043;DHT22;6082;49.306;12.862;2022-11-10T01:55:52;10.00;99.90
12043;DHT22;6082;49.306;12.862;2022-11-10T01:58:23;10.10;99.90
12043;DHT22;6082;49.306;12.862;2022-11-10T02:00:50;10.10;99.90
12043;DHT22;6082;49.306;12.862;2022-11-10T02:06:05;10.10;99.90
12043;DHT22;6082;49.306;12.862;2022-11-10T02:08:31;10.10;99.90
12043;DHT22;6082;49.306;12.862;2022-11-10T02:10:56;10.10;99.90
12043;DHT22;6082;49.306;12.862;2022-11-10T02:13:22;10.10;99.90
12043;DHT22;6082;49.306;12.862;2022-11-10T02:15:47;10.10;99.90
12043;DHT22;6082;49.306;12.862;2022-11-10T02:18:13;10.10;99.90
12043;DHT22;6082;49.306;12.862;2022-11-10T02:20:43;10.10;99.90
12043;DHT22;6082;49.306;12.862;2022-11-10T02:25:58;10.20;99.90
12043;DHT22;6082;49.306;12.862;2022-11-10T02:28:24;10.20;99.90
12043;DHT22;6082;49.306;12.862;2022-11-10T02:30:51;10.20;99.90
12043;DHT22;6082;49.306;12.862;2022-11-10T02:33:16;10.20;99.90
12043;DHT22;6082;49.306;12.862;2022-11-10T02:35:45;10.20;99.90
12043;DHT22;6082;49.306;12.862;2022-11-10T02:38:12;10.20;99.90
12043;DHT22;6082;49.306;12.862;2022-11-10T02:40:38;10.20;99.90
12043;DHT22;6082;49.306;12.862;2022-11-10T02:43:06;10.20;99.90
12043;DHT22;6082;49.306;12.862;2022-11-10T02:45:32;10.20;99.90
12043;DHT22;6082;49.306;12.862;2022-11-10T02:47:58;10.20;99.90
12043;DHT22;6082;49.306;12.862;2022-11-10T02:50:23;10.20;99.90
12043;DHT22;6082;49.306;12.862;2022-11-10T02:52:49;10.20;99.90
12043;DHT22;6082;49.306;12.862;2022-11-10T02:55:15;10.20;99.90
12043;DHT22;6082;49.306;12.862;2022-11-10T02:57:41;10.20;99.90
12043;DHT22;6082;49.306;12.862;2022-11-10T03:00:07;10.20;99.90
12043;DHT22;6082;49.306;12.862;2022-11-10T03:02:32;10.20;99.90
12043;DHT22;6082;49.306;12.862;2022-11-10T03:04:58;10.20;99.90
12043;DHT22;6082;49.306;12.862;2022-11-10T03:07:24;10.20;99.90
12043;DHT22;6082;49.306;12.862;2022-11-10T03:09:49;10.20;99.90
12043;DHT22;6082;49.306;12.862;2022-11-10T03:12:16;10.20;99.90
12043;DHT22;6082;49.306;12.862;2022-11-10T03:14:41;10.20;99.90
12043;DHT22;6082;49.306;12.862;2022-11-10T03:17:07;10.20;99.90
12043;DHT22;6082;49.306;12.862;2022-11-10T03:19:33;10.20;99.90
12043;DHT22;6082;49.306;12.862;2022-11-10T03:21:58;10.20;99.90
12043;DHT22;6082;49.306;12.862;2022-11-10T03:24:24;10.20;99.90
12043;DHT22;6082;49.306;12.862;2022-11-10T03:26:50;10.20;99.90
12043;DHT22;6082;49.306;12.862;2022-11-10T03:29:15;10.20;99.90
12043;DHT22;6082;49.306;12.862;2022-11-10T03:31:41;10.20;99.90
12043;DHT22;6082;49.306;12.862;2022-11-10T03:34:06;10.30;99.90
12043;DHT22;6082;49.306;12.862;2022-11-10T03:36:32;10.30;99.90
12043;DHT22;6082;49.306;12.862;2022-11-10T03:38:58;10.30;99.90
12043;DHT22;6082;49.306;12.862;2022-11-10T03:41:23;10.20;99.90
12043;DHT22;6082;49.306;12.862;2022-11-10T03:43:49;10.30;99.90
12043;DHT22;6082;49.306;12.862;2022-11-10T03:46:16;10.30;99.90
12043;DHT22;6082;49.306;12.862;2022-11-10T03:48:41;10.30;99.90
12043;DHT22;6082;49.306;12.862;2022-11-10T03:51:07;10.30;99.90
12043;DHT22;6082;49.306;12.862;2022-11-10T03:53:33;10.30;99.90
12043;DHT22;6082;49.306;12.862;2022-11-10T03:56:03;10.30;99.90
12043;DHT22;6082;49.306;12.862;2022-11-10T03:58:29;10.30;99.90
12043;DHT22;6082;49.306;12.862;2022-11-10T04:00:55;10.30;99.90
12043;DHT22;6082;49.306;12.862;2022-11-10T04:03:21;10.30;99.90
12043;DHT22;6082;49.306;12.862;2022-11-10T04:05:47;10.30;99.90
12043;DHT22;6082;49.306;12.862;2022-11-10T04:08:32;10.30;99.90
12043;DHT22;6082;49.306;12.862;2022-11-10T04:11:16;10.30;99.90
12043;DHT22;6082;49.306;12.862;2022-11-10T04:14:03;10.30;99.90
12043;DHT22;6082;49.306;12.862;2022-11-10T04:16:47;10.30;99.90
12043;DHT22;6082;49.306;12.862;2022-11-10T04:19:13;10.30;99.90
12043;DHT22;6082;49.306;12.862;2022-11-10T04:21:39;10.30;99.90
12043;DHT22;6082;49.306;12.862;2022-11-10T04:24:05;10.30;99.90
12043;DHT22;6082;49.306;12.862;2022-11-10T04:26:30;10.20;99.90
12043;DHT22;6082;49.306;12.862;2022-11-10T04:29:03;10.30;99.90
12043;DHT22;6082;49.306;12.862;2022-11-10T04:31:31;10.30;99.90
12043;DHT22;6082;49.306;12.862;2022-11-10T04:33:57;10.30;99.90
12043;DHT22;6082;49.306;12.862;2022-11-10T04:36:29;10.30;99.90
12043;DHT22;6082;49.306;12.862;2022-11-10T04:38:56;10.30;99.90
12043;DHT22;6082;49.306;12.862;2022-11-10T04:41:23;10.30;99.90
12043;DHT22;6082;49.306;12.862;2022-11-10T04:43:50;10.30;99.90
12043;DHT22;6082;49.306;12.862;2022-11-10T04:46:22;10.20;99.90
12043;DHT22;6082;49.306;12.862;2022-11-10T04:48:48;10.20;99.90
12043;DHT22;6082;49.306;12.862;2022-11-10T04:51:15;10.30;99.90
12043;DHT22;6082;49.306;12.862;2022-11-10T04:53:41;10.30;99.90
12043;DHT22;6082;49.306;12.862;2022-11-10T04:56:15;10.20;99.90
12043;DHT22;6082;49.306;12.862;2022-11-10T04:58:41;10.20;99.90
12043;DHT22;6082;49.306;12.862;2022-11-10T05:01:14;10.20;99.90
12043;DHT22;6082;49.306;12.862;2022-11-10T05:03:41;10.20;99.90
12043;DHT22;6082;49.306;12.862;2022-11-10T05:06:08;10.20;99.90
12043;DHT22;6082;49.306;12.862;2022-11-10T05:08:34;10.20;99.90
12043;DHT22;6082;49.306;12.862;2022-11-10T05:11:00;10.20;99.90
12043;DHT22;6082;49.306;12.862;2022-11-10T05:13:26;10.20;99.90
12043;DHT22;6082;49.306;12.862;2022-11-10T05:15:52;10.20;99.90
12043;DHT22;6082;49.306;12.862;2022-11-10T05:18:18;10.20;99.90
12043;DHT22;6082;49.306;12.862;2022-11-10T05:20:43;10.20;99.90
12043;DHT22;6082;49.306;12.862;2022-11-10T05:23:09;10.20;99.90
12043;DHT22;6082;49.306;12.862;2022-11-10T05:26:12;10.30;99.90
12043;DHT22;6082;49.306;12.862;2022-11-10T05:28:40;10.30;99.90
12043;DHT22;6082;49.306;12.862;2022-11-10T05:31:06;10.20;99.90
12043;DHT22;6082;49.306;12.862;2022-11-10T05:33:33;10.20;99.90
12043;DHT22;6082;49.306;12.862;2022-11-10T05:36:01;10.20;99.90
12043;DHT22;6082;49.306;12.862;2022-11-10T05:38:26;10.20;99.90
12043;DHT22;6082;49.306;12.862;2022-11-10T05:40:52;10.20;99.90
12043;DHT22;6082;49.306;12.862;2022-11-10T05:43:18;10.20;99.90
12043;DHT22;6082;49.306;12.862;2022-11-10T05:45:43;10.10;99.90
12043;DHT22;6082;49.306;12.862;2022-11-10T05:48:09;10.10;99.90
12043;DHT22;6082;49.306;12.862;2022-11-10T05:50:35;10.10;99.90
12043;DHT22;6082;49.306;12.862;2022-11-10T05:53:01;10.00;99.90
12043;DHT22;6082;49.306;12.862;2022-11-10T05:55:27;10.00;99.90
12043;DHT22;6082;49.306;12.862;2022-11-10T05:57:55;10.00;99.90
12043;DHT22;6082;49.306;12.862;2022-11-10T06:00:23;10.00;99.90
12043;DHT22;6082;49.306;12.862;2022-11-10T06:05:22;10.00;99.90
12043;DHT22;6082;49.306;12.862;2022-11-10T06:07:48;9.90;99.90
12043;DHT22;6082;49.306;12.862;2022-11-10T06:10:13;9.90;99.90
12043;DHT22;6082;49.306;12.862;2022-11-10T06:12:39;9.90;99.90
12043;DHT22;6082;49.306;12.862;2022-11-10T06:15:05;9.90;99.90
12043;DHT22;6082;49.306;12.862;2022-11-10T06:17:30;9.90;99.90
12043;DHT22;6082;49.306;12.862;2022-11-10T06:19:56;9.90;99.90
12043;DHT22;6082;49.306;12.862;2022-11-10T06:22:22;9.80;99.90
12043;DHT22;6082;49.306;12.862;2022-11-10T06:24:47;9.80;99.90
12043;DHT22;6082;49.306;12.862;2022-11-10T06:27:13;9.80;99.90
12043;DHT22;6082;49.306;12.862;2022-11-10T06:29:39;9.80;99.90
12043;DHT22;6082;49.306;12.862;2022-11-10T06:32:04;9.80;99.90
12043;DHT22;6082;49.306;12.862;2022-11-10T06:34:30;9.80;99.90
12043;DHT22;6082;49.306;12.862;2022-11-10T06:36:56;9.80;99.90
12043;DHT22;6082;49.306;12.862;2022-11-10T06:39:21;9.80;99.90
12043;DHT22;6082;49.306;12.862;2022-11-10T06:41:47;9.80;99.90
12043;DHT22;6082;49.306;12.862;2022-11-10T06:44:12;9.80;99.90
12043;DHT22;6082;49.306;12.862;2022-11-10T06:46:38;9.80;99.90
12043;DHT22;6082;49.306;12.862;2022-11-10T06:49:04;9.80;99.90
12043;DHT22;6082;49.306;12.862;2022-11-10T06:51:29;9.80;99.90
12043;DHT22;6082;49.306;12.862;2022-11-10T06:53:55;9.80;99.90
12043;DHT22;6082;49.306;12.862;2022-11-10T06:56:20;9.80;99.90
12043;DHT22;6082;49.306;12.862;2022-11-10T06:58:46;9.80;99.90
12043;DHT22;6082;49.306;12.862;2022-11-10T07:01:12;9.80;99.90
12043;DHT22;6082;49.306;12.862;2022-11-10T07:03:37;9.90;99.90
12043;DHT22;6082;49.306;12.862;2022-11-10T07:06:04;9.80;99.90
12043;DHT22;6082;49.306;12.862;2022-11-10T07:08:30;9.80;99.90
12043;DHT22;6082;49.306;12.862;2022-11-10T07:10:55;9.90;99.90
12043;DHT22;6082;49.306;12.862;2022-11-10T07:13:22;9.90;99.90
12043;DHT22;6082;49.306;12.862;2022-11-10T07:15:48;9.90;99.90
12043;DHT22;6082;49.306;12.862;2022-11-10T07:18:14;9.90;99.90
12043;DHT22;6082;49.306;12.862;2022-11-10T07:20:39;10.00;99.90
12043;DHT22;6082;49.306;12.862;2022-11-10T07:23:06;10.00;99.90
12043;DHT22;6082;49.306;12.862;2022-11-10T07:25:34;10.00;99.90
12043;DHT22;6082;49.306;12.862;2022-11-10T07:28:05;10.10;99.90
12043;DHT22;6082;49.306;12.862;2022-11-10T07:30:32;10.10;99.90
12043;DHT22;6082;49.306;12.862;2022-11-10T07:33:00;10.10;99.90
12043;DHT22;6082;49.306;12.862;2022-11-10T07:35:27;10.20;99.90
12043;DHT22;6082;49.306;12.862;2022-11-10T07:37:54;10.20;99.90
12043;DHT22;6082;49.306;12.862;2022-11-10T07:40:20;10.20;99.90
12043;DHT22;6082;49.306;12.862;2022-11-10T07:42:46;10.20;99.90
12043;DHT22;6082;49.306;12.862;2022-11-10T07:45:12;10.30;99.90
12043;DHT22;6082;49.306;12.862;2022-11-10T07:47:37;10.30;99.90
12043;DHT22;6082;49.306;12.862;2022-11-10T07:50:03;10.30;99.90
12043;DHT22;6082;49.306;12.862;2022-11-10T07:52:29;10.30;99.90
12043;DHT22;6082;49.306;12.862;2022-11-10T07:54:54;10.30;99.90
12043;DHT22;6082;49.306;12.862;2022-11-10T07:57:20;10.30;99.90
12043;DHT22;6082;49.306;12.862;2022-11-10T07:59:46;10.40;99.90
12043;DHT22;6082;49.306;12.862;2022-11-10T08:02:11;10.50;99.90
12043;DHT22;6082;49.306;12.862;2022-11-10T08:04:37;10.50;99.90
12043;DHT22;6082;49.306;12.862;2022-11-10T08:07:03;10.50;99.90
12043;DHT22;6082;49.306;12.862;2022-11-10T08:09:28;10.50;99.90
12043;DHT22;6082;49.306;12.862;2022-11-10T08:11:54;10.60;99.90
12043;DHT22;6082;49.306;12.862;2022-11-10T08:14:19;10.60;99.90
12043;DHT22;6082;49.306;12.862;2022-11-10T08:16:45;10.60;99.90
12043;DHT22;6082;49.306;12.862;2022-11-10T08:19:11;10.50;99.90
12043;DHT22;6082;49.306;12.862;2022-11-10T08:21:36;10.50;99.90
12043;DHT22;6082;49.306;12.862;2022-11-10T08:24:02;10.60;99.90
12043;DHT22;6082;49.306;12.862;2022-11-10T08:26:28;10.60;99.90
12043;DHT22;6082;49.306;12.862;2022-11-10T08:28:54;10.60;99.90
12043;DHT22;6082;49.306;12.862;2022-11-10T08:31:19;10.70;99.90
12043;DHT22;6082;49.306;12.862;2022-11-10T08:33:45;10.80;99.90
12043;DHT22;6082;49.306;12.862;2022-11-10T08:36:10;10.80;99.90
12043;DHT22;6082;49.306;12.862;2022-11-10T08:38:36;10.80;99.90
12043;DHT22;6082;49.306;12.862;2022-11-10T08:41:02;10.90;99.90
12043;DHT22;6082;49.306;12.862;2022-11-10T08:43:27;10.90;99.90
12043;DHT22;6082;49.306;12.862;2022-11-10T08:45:54;10.90;99.90
12043;DHT22;6082;49.306;12.862;2022-11-10T08:48:21;10.80;99.90
12043;DHT22;6082;49.306;12.862;2022-11-10T08:50:48;10.90;99.90
12043;DHT22;6082;49.306;12.862;2022-11-10T08:53:19;10.90;99.90
12043;DHT22;6082;49.306;12.862;2022-11-10T08:55:45;10.90;99.90
12043;DHT22;6082;49.306;12.862;2022-11-10T08:58:13;10.90;99.90
12043;DHT22;6082;49.306;12.862;2022-11-10T09:00:38;10.90;99.90
12043;DHT22;6082;49.306;12.862;2022-11-10T09:03:23;10.90;99.90
12043;DHT22;6082;49.306;12.862;2022-11-10T09:05:50;11.00;99.90
12043;DHT22;6082;49.306;12.862;2022-11-10T09:08:16;11.10;99.90
12043;DHT22;6082;49.306;12.862;2022-11-10T09:10:44;11.10;99.90
12043;DHT22;6082;49.306;12.862;2022-11-10T09:13:12;11.20;99.90
12043;DHT22;6082;49.306;12.862;2022-11-10T09:15:39;11.20;99.90
12043;DHT22;6082;49.306;12.862;2022-11-10T09:18:07;11.30;99.90
12043;DHT22;6082;49.306;12.862;2022-11-10T09:20:34;11.40;99.90
12043;DHT22;6082;49.306;12.862;2022-11-10T09:23:14;11.40;99.90
12043;DHT22;6082;49.306;12.862;2022-11-10T09:25:41;11.40;99.90
12043;DHT22;6082;49.306;12.862;2022-11-10T09:28:14;11.40;99.90
12043;DHT22;6082;49.306;12.862;2022-11-10T09:30:40;11.50;99.90
12043;DHT22;6082;49.306;12.862;2022-11-10T09:33:06;11.50;99.90
12043;DHT22;6082;49.306;12.862;2022-11-10T09:35:32;11.50;99.90
12043;DHT22;6082;49.306;12.862;2022-11-10T09:37:57;11.60;99.90
12043;DHT22;6082;49.306;12.862;2022-11-10T09:43:20;11.70;99.90
12043;DHT22;6082;49.306;12.862;2022-11-10T09:45:49;11.80;99.90
12043;DHT22;6082;49.306;12.862;2022-11-10T09:48:33;11.90;99.90
12043;DHT22;6082;49.306;12.862;2022-11-10T09:51:10;12.00;99.90
12043;DHT22;6082;49.306;12.862;2022-11-10T09:53:43;12.00;99.90
12043;DHT22;6082;49.306;12.862;2022-11-10T09:56:28;12.00;99.90
12043;DHT22;6082;49.306;12.862;2022-11-10T09:58:55;12.10;99.90
12043;DHT22;6082;49.306;12.862;2022-11-10T10:01:28;12.20;99.90
12043;DHT22;6082;49.306;12.862;2022-11-10T10:18:37;12.40;99.90
12043;DHT22;6082;49.306;12.862;2022-11-10T10:21:27;12.40;99.90
12043;DHT22;6082;49.306;12.862;2022-11-10T10:23:55;12.40;99.90
12043;DHT22;6082;49.306;12.862;2022-11-10T10:26:38;12.30;99.90
12043;DHT22;6082;49.306;12.862;2022-11-10T10:29:28;12.30;99.90
12043;DHT22;6082;49.306;12.862;2022-11-10T10:31:54;12.40;99.90
12043;DHT22;6082;49.306;12.862;2022-11-10T10:34:27;12.40;99.90
12043;DHT22;6082;49.306;12.862;2022-11-10T10:36:53;12.40;99.90
12043;DHT22;6082;49.306;12.862;2022-11-10T10:39:36;12.40;99.90
12043;DHT22;6082;49.306;12.862;2022-11-10T10:42:15;12.40;99.90
12043;DHT22;6082;49.306;12.862;2022-11-10T10:47:37;12.30;99.90
12043;DHT22;6082;49.306;12.862;2022-11-10T10:50:20;12.30;99.90
12043;DHT22;6082;49.306;12.862;2022-11-10T10:53:09;12.30;99.90
12043;DHT22;6082;49.306;12.862;2022-11-10T10:55:37;12.30;99.90
12043;DHT22;6082;49.306;12.862;2022-11-10T11:00:48;12.30;99.90
12043;DHT22;6082;49.306;12.862;2022-11-10T11:03:26;12.20;99.90
12043;DHT22;6082;49.306;12.862;2022-11-10T11:08:30;12.30;99.90
12043;DHT22;6082;49.306;12.862;2022-11-10T11:11:06;12.30;99.90
12043;DHT22;6082;49.306;12.862;2022-11-10T11:13:33;12.30;99.90
12043;DHT22;6082;49.306;12.862;2022-11-10T11:16:01;12.40;99.90
12043;DHT22;6082;49.306;12.862;2022-11-10T11:18:29;12.40;99.90
12043;DHT22;6082;49.306;12.862;2022-11-10T11:21:13;12.40;99.90
12043;DHT22;6082;49.306;12.862;2022-11-10T11:24:09;12.50;99.90
12043;DHT22;6082;49.306;12.862;2022-11-10T11:34:35;12.50;99.90
12043;DHT22;6082;49.306;12.862;2022-11-10T11:37:10;12.50;99.90
12043;DHT22;6082;49.306;12.862;2022-11-10T11:45:06;12.60;99.90
12043;DHT22;6082;49.306;12.862;2022-11-10T11:50:35;12.70;99.90
12043;DHT22;6082;49.306;12.862;2022-11-10T11:56:11;12.90;99.90
12043;DHT22;6082;49.306;12.862;2022-11-10T12:07:33;13.10;99.90
12043;DHT22;6082;49.306;12.862;2022-11-10T12:10:30;13.10;99.90
12043;DHT22;6082;49.306;12.862;2022-11-10T12:16:10;13.00;99.90
12043;DHT22;6082;49.306;12.862;2022-11-10T12:21:50;12.80;99.90
12043;DHT22;6082;49.306;12.862;2022-11-10T12:29:51;12.80;99.90
12043;DHT22;6082;49.306;12.862;2022-11-10T12:32:29;12.80;99.90
12043;DHT22;6082;49.306;12.862;2022-11-10T12:38:00;12.70;99.90
12043;DHT22;6082;49.306;12.862;2022-11-10T12:40:35;12.70;99.90
12043;DHT22;6082;49.306;12.862;2022-11-10T12:46:00;12.60;99.90
12043;DHT22;6082;49.306;12.862;2022-11-10T12:48:33;12.60;99.90
12043;DHT22;6082;49.306;12.862;2022-11-10T12:53:40;12.50;99.90
12043;DHT22;6082;49.306;12.862;2022-11-10T12:58:38;12.50;99.90
12043;DHT22;6082;49.306;12.862;2022-11-10T13:01:14;12.50;99.90
12043;DHT22;6082;49.306;12.862;2022-11-10T13:03:56;12.50;99.90
12043;DHT22;6082;49.306;12.862;2022-11-10T13:06:34;12.60;99.90
12043;DHT22;6082;49.306;12.862;2022-11-10T13:09:01;12.60;99.90
12043;DHT22;6082;49.306;12.862;2022-11-10T13:11:32;12.60;99.90
12043;DHT22;6082;49.306;12.862;2022-11-10T13:14:03;12.60;99.90
12043;DHT22;6082;49.306;12.862;2022-11-10T13:24:25;12.40;99.90
12043;DHT22;6082;49.306;12.862;2022-11-10T13:29:28;12.40;99.90
12043;DHT22;6082;49.306;12.862;2022-11-10T13:31:58;12.50;99.90
12043;DHT22;6082;49.306;12.862;2022-11-10T13:34:28;12.50;99.90
12043;DHT22;6082;49.306;12.862;2022-11-10T13:36:54;12.60;99.90
12043;DHT22;6082;49.306;12.862;2022-11-10T13:44:26;12.70;99.90
12043;DHT22;6082;49.306;12.862;2022-11-10T13:53:07;12.90;99.90
12043;DHT22;6082;49.306;12.862;2022-11-10T13:58:16;13.00;99.90
12043;DHT22;6082;49.306;12.862;2022-11-10T14:00:48;13.00;99.90
12043;DHT22;6082;49.306;12.862;2022-11-10T14:06:19;12.90;99.90
12043;DHT22;6082;49.306;12.862;2022-11-10T14:09:02;13.00;99.90
12043;DHT22;6082;49.306;12.862;2022-11-10T14:12:33;13.00;99.90
12043;DHT22;6082;49.306;12.862;2022-11-10T14:14:49;13.00;99.90
12043;DHT22;6082;49.306;12.862;2022-11-10T14:17:19;12.90;99.90
12043;DHT22;6082;49.306;12.862;2022-11-10T14:19:46;12.90;99.90
12043;DHT22;6082;49.306;12.862;2022-11-10T14:22:25;12.80;99.90
12043;DHT22;6082;49.306;12.862;2022-11-10T14:24:59;12.80;99.90
12043;DHT22;6082;49.306;12.862;2022-11-10T14:27:28;12.70;99.90
12043;DHT22;6082;49.306;12.862;2022-11-10T14:30:22;12.70;99.90
12043;DHT22;6082;49.306;12.862;2022-11-10T14:33:17;12.70;99.90
12043;DHT22;6082;49.306;12.862;2022-11-10T14:35:55;12.60;99.90
12043;DHT22;6082;49.306;12.862;2022-11-10T14:38:27;12.50;99.90
12043;DHT22;6082;49.306;12.862;2022-11-10T14:40:55;12.50;99.90
12043;DHT22;6082;49.306;12.862;2022-11-10T14:43:32;12.40;99.90
12043;DHT22;6082;49.306;12.862;2022-11-10T14:45:59;12.40;99.90
12043;DHT22;6082;49.306;12.862;2022-11-10T14:48:28;12.40;99.90
12043;DHT22;6082;49.306;12.862;2022-11-10T14:50:54;12.30;99.90
12043;DHT22;6082;49.306;12.862;2022-11-10T14:53:27;12.30;99.90
12043;DHT22;6082;49.306;12.862;2022-11-10T14:55:55;12.20;99.90
12043;DHT22;6082;49.306;12.862;2022-11-10T14:58:26;12.20;99.90
12043;DHT22;6082;49.306;12.862;2022-11-10T15:00:53;12.10;99.90
12043;DHT22;6082;49.306;12.862;2022-11-10T15:03:26;12.10;99.90
12043;DHT22;6082;49.306;12.862;2022-11-10T15:05:55;12.00;99.90
12043;DHT22;6082;49.306;12.862;2022-11-10T15:08:21;12.00;99.90
12043;DHT22;6082;49.306;12.862;2022-11-10T15:10:49;12.00;99.90
12043;DHT22;6082;49.306;12.862;2022-11-10T15:13:20;11.90;99.90
12043;DHT22;6082;49.306;12.862;2022-11-10T15:18:54;11.90;99.90
12043;DHT22;6082;49.306;12.862;2022-11-10T15:21:30;11.90;99.90
12043;DHT22;6082;49.306;12.862;2022-11-10T15:24:01;11.90;99.90
12043;DHT22;6082;49.306;12.862;2022-11-10T15:26:30;11.90;99.90
12043;DHT22;6082;49.306;12.862;2022-11-10T15:28:59;11.90;99.90
12043;DHT22;6082;49.306;12.862;2022-11-10T15:31:29;11.80;99.90
12043;DHT22;6082;49.306;12.862;2022-11-10T15:34:00;11.80;99.90
12043;DHT22;6082;49.306;12.862;2022-11-10T15:36:30;11.80;99.90
12043;DHT22;6082;49.306;12.862;2022-11-10T15:39:05;11.80;99.90
12043;DHT22;6082;49.306;12.862;2022-11-10T15:41:49;11.80;99.90
12043;DHT22;6082;49.306;12.862;2022-11-10T15:44:23;11.80;99.90
12043;DHT22;6082;49.306;12.862;2022-11-10T15:46:53;11.80;99.90
12043;DHT22;6082;49.306;12.862;2022-11-10T15:49:26;11.70;99.90
12043;DHT22;6082;49.306;12.862;2022-11-10T15:52:03;11.70;99.90
12043;DHT22;6082;49.306;12.862;2022-11-10T15:54:33;11.70;99.90
12043;DHT22;6082;49.306;12.862;2022-11-10T15:57:10;11.80;99.90
12043;DHT22;6082;49.306;12.862;2022-11-10T15:59:36;11.70;99.90
12043;DHT22;6082;49.306;12.862;2022-11-10T16:02:08;11.70;99.90
12043;DHT22;6082;49.306;12.862;2022-11-10T16:04:35;11.70;99.90
12043;DHT22;6082;49.306;12.862;2022-11-10T16:07:00;11.70;99.90
12043;DHT22;6082;49.306;12.862;2022-11-10T16:09:26;11.60;99.90
12043;DHT22;6082;49.306;12.862;2022-11-10T16:11:52;11.60;99.90
12043;DHT22;6082;49.306;12.862;2022-11-10T16:14:17;11.50;99.90
12043;DHT22;6082;49.306;12.862;2022-11-10T16:16:43;11.50;99.90
12043;DHT22;6082;49.306;12.862;2022-11-10T16:19:10;11.50;99.90
12043;DHT22;6082;49.306;12.862;2022-11-10T16:21:36;11.50;99.90
12043;DHT22;6082;49.306;12.862;2022-11-10T16:24:02;11.50;99.90
12043;DHT22;6082;49.306;12.862;2022-11-10T16:26:28;11.40;99.90
12043;DHT22;6082;49.306;12.862;2022-11-10T16:28:54;11.40;99.90
12043;DHT22;6082;49.306;12.862;2022-11-10T16:31:20;11.40;99.90
12043;DHT22;6082;49.306;12.862;2022-11-10T16:33:46;11.30;99.90
12043;DHT22;6082;49.306;12.862;2022-11-10T16:36:25;11.30;99.90
12043;DHT22;6082;49.306;12.862;2022-11-10T16:38:52;11.30;99.90
12043;DHT22;6082;49.306;12.862;2022-11-10T16:41:18;11.20;99.90
12043;DHT22;6082;49.306;12.862;2022-11-10T16:43:44;11.20;99.90
12043;DHT22;6082;49.306;12.862;2022-11-10T16:46:28;11.10;99.90
12043;DHT22;6082;49.306;12.862;2022-11-10T16:48:57;11.10;99.90
12043;DHT22;6082;49.306;12.862;2022-11-10T16:51:28;11.10;99.90
12043;DHT22;6082;49.306;12.862;2022-11-10T16:53:54;11.00;99.90
12043;DHT22;6082;49.306;12.862;2022-11-10T16:56:20;11.00;99.90
12043;DHT22;6082;49.306;12.862;2022-11-10T16:58:46;11.00;99.90
12043;DHT22;6082;49.306;12.862;2022-11-10T17:01:23;11.00;99.90
12043;DHT22;6082;49.306;12.862;2022-11-10T17:03:52;10.90;99.90
12043;DHT22;6082;49.306;12.862;2022-11-10T17:06:20;10.90;99.90
12043;DHT22;6082;49.306;12.862;2022-11-10T17:08:49;10.90;99.90
12043;DHT22;6082;49.306;12.862;2022-11-10T17:11:16;10.90;99.90
12043;DHT22;6082;49.306;12.862;2022-11-10T17:13:42;10.90;99.90
12043;DHT22;6082;49.306;12.862;2022-11-10T17:19:15;10.80;99.90
12043;DHT22;6082;49.306;12.862;2022-11-10T17:21:42;10.80;99.90
12043;DHT22;6082;49.306;12.862;2022-11-10T17:24:11;10.70;99.90
12043;DHT22;6082;49.306;12.862;2022-11-10T17:26:37;10.70;99.90
12043;DHT22;6082;49.306;12.862;2022-11-10T17:29:03;10.60;99.90
12043;DHT22;6082;49.306;12.862;2022-11-10T17:31:28;10.60;99.90
12043;DHT22;6082;49.306;12.862;2022-11-10T17:33:54;10.50;99.90
12043;DHT22;6082;49.306;12.862;2022-11-10T17:36:21;10.50;99.90
12043;DHT22;6082;49.306;12.862;2022-11-10T17:38:48;10.40;99.90
12043;DHT22;6082;49.306;12.862;2022-11-10T17:41:18;10.40;99.90